sensor_id;sensor_type;location;lat;lon;timestamp;temperature;humidity
4183;DHT22;2105;52.300;9.182;2023-04-25T00:02:08;7.20;1.00
4183;DHT22;2105;52.300;9.182;2023-04-25T00:04:35;7.20;1.00
4183;DHT22;2105;52.300;9.182;2023-04-25T00:07:05;7.20;99.90
4183;DHT22;2105;52.300;9.182;2023-04-25T00:09:34;7.20;99.90
4183;DHT22;2105;52.300;9.182;2023-04-25T00:12:00;7.10;99.90
4183;DHT22;2105;52.300;9.182;2023-04-25T00:14:27;7.10;99.90
4183;DHT22;2105;52.300;9.182;2023-04-25T00:16:54;7.10;1.00
4183;DHT22;2105;52.300;9.182;2023-04-25T00:19:22;7.10;1.00
4183;DHT22;2105;52.300;9.182;2023-04-25T00:21:50;7.10;1.00
4183;DHT22;2105;52.300;9.182;2023-04-25T00:24:16;7.10;99.90
4183;DHT22;2105;52.300;9.182;2023-04-25T00:26:43;7.00;99.90
4183;DHT22;2105;52.300;9.182;2023-04-25T00:29:10;7.00;1.00
4183;DHT22;2105;52.300;9.182;2023-04-25T00:31:36;7.00;1.00
4183;DHT22;2105;52.300;9.182;2023-04-25T00:34:03;7.10;99.90
4183;DHT22;2105;52.300;9.182;2023-04-25T00:36:31;7.10;99.90
4183;DHT22;2105;52.300;9.182;2023-04-25T00:38:58;7.10;1.00
4183;DHT22;2105;52.300;9.182;2023-04-25T00:41:25;7.10;99.90
4183;DHT22;2105;52.300;9.182;2023-04-25T00:43:54;7.10;99.90
4183;DHT22;2105;52.300;9.182;2023-04-25T00:46:21;7.10;99.90
4183;DHT22;2105;52.300;9.182;2023-04-25T00:48:51;7.10;99.90
4183;DHT22;2105;52.300;9.182;2023-04-25T00:51:20;7.10;99.90
4183;DHT22;2105;52.300;9.182;2023-04-25T00:53:49;7.10;99.90
4183;DHT22;2105;52.300;9.182;2023-04-25T00:56:17;7.00;1.00
4183;DHT22;2105;52.300;9.182;2023-04-25T00:58:44;7.10;1.00
4183;DHT22;2105;52.300;9.182;2023-04-25T01:01:11;7.10;1.00
4183;DHT22;2105;52.300;9.182;2023-04-25T01:03:39;7.10;1.00
4183;DHT22;2105;52.300;9.182;2023-04-25T01:06:08;7.10;1.00
4183;DHT22;2105;52.300;9.182;2023-04-25T01:08:36;7.10;1.00
4183;DHT22;2105;52.300;9.182;2023-04-25T01:11:05;7.10;25.30
4183;DHT22;2105;52.300;9.182;2023-04-25T01:13:32;7.10;99.90
4183;DHT22;2105;52.300;9.182;2023-04-25T01:16:00;7.00;99.90
4183;DHT22;2105;52.300;9.182;2023-04-25T01:18:26;7.00;99.90
4183;DHT22;2105;52.300;9.182;2023-04-25T01:20:54;7.00;1.00
4183;DHT22;2105;52.300;9.182;2023-04-25T01:23:22;7.00;1.00
4183;DHT22;2105;52.300;9.182;2023-04-25T01:25:50;6.90;1.00
4183;DHT22;2105;52.300;9.182;2023-04-25T01:28:17;6.90;1.00
4183;DHT22;2105;52.300;9.182;2023-04-25T01:30:44;6.90;25.90
4183;DHT22;2105;52.300;9.182;2023-04-25T01:33:13;6.90;99.90
4183;DHT22;2105;52.300;9.182;2023-04-25T01:35:40;6.90;99.90
4183;DHT22;2105;52.300;9.182;2023-04-25T01:38:08;6.90;99.90
4183;DHT22;2105;52.300;9.182;2023-04-25T01:40:39;6.90;99.90
4183;DHT22;2105;52.300;9.182;2023-04-25T01:43:07;6.90;99.90
4183;DHT22;2105;52.300;9.182;2023-04-25T02:07:05;6.60;99.90
4183;DHT22;2105;52.300;9.182;2023-04-25T02:09:49;6.50;99.90
4183;DHT22;2105;52.300;9.182;2023-04-25T02:12:26;6.50;99.90
4183;DHT22;2105;52.300;9.182;2023-04-25T02:15:23;6.50;99.90
4183;DHT22;2105;52.300;9.182;2023-04-25T02:17:42;6.50;99.90
4183;DHT22;2105;52.300;9.182;2023-04-25T02:20:11;6.40;99.90
4183;DHT22;2105;52.300;9.182;2023-04-25T02:22:54;6.40;99.90
4183;DHT22;2105;52.300;9.182;2023-04-25T02:25:21;6.50;99.90
4183;DHT22;2105;52.300;9.182;2023-04-25T02:27:51;6.40;99.90
4183;DHT22;2105;52.300;9.182;2023-04-25T02:30:22;6.40;99.90
4183;DHT22;2105;52.300;9.182;2023-04-25T02:32:49;6.40;99.90
4183;DHT22;2105;52.300;9.182;2023-04-25T02:35:16;6.40;99.90
4183;DHT22;2105;52.300;9.182;2023-04-25T02:37:43;6.40;99.90
4183;DHT22;2105;52.300;9.182;2023-04-25T02:40:12;6.50;99.90
4183;DHT22;2105;52.300;9.182;2023-04-25T02:42:38;6.60;99.90
4183;DHT22;2105;52.300;9.182;2023-04-25T02:45:10;6.60;99.90
4183;DHT22;2105;52.300;9.182;2023-04-25T02:47:39;6.60;99.90
4183;DHT22;2105;52.300;9.182;2023-04-25T02:50:09;6.50;99.90
4183;DHT22;2105;52.300;9.182;2023-04-25T02:52:36;6.60;99.90
4183;DHT22;2105;52.300;9.182;2023-04-25T02:55:03;6.50;99.90
4183;DHT22;2105;52.300;9.182;2023-04-25T02:57:35;6.60;99.90
4183;DHT22;2105;52.300;9.182;2023-04-25T03:00:05;6.50;99.90
4183;DHT22;2105;52.300;9.182;2023-04-25T03:02:33;6.50;99.90
4183;DHT22;2105;52.300;9.182;2023-04-25T03:04:59;6.50;99.90
4183;DHT22;2105;52.300;9.182;2023-04-25T03:07:26;6.50;99.90
4183;DHT22;2105;52.300;9.182;2023-04-25T03:09:53;6.40;99.90
4183;DHT22;2105;52.300;9.182;2023-04-25T03:12:21;6.40;99.90
4183;DHT22;2105;52.300;9.182;2023-04-25T03:14:51;6.40;99.90
4183;DHT22;2105;52.300;9.182;2023-04-25T03:17:18;6.40;99.90
4183;DHT22;2105;52.300;9.182;2023-04-25T03:19:45;6.40;99.90
4183;DHT22;2105;52.300;9.182;2023-04-25T03:22:14;6.40;99.90
4183;DHT22;2105;52.300;9.182;2023-04-25T03:24:40;6.40;99.90
4183;DHT22;2105;52.300;9.182;2023-04-25T03:27:07;6.40;99.90
4183;DHT22;2105;52.300;9.182;2023-04-25T03:29:34;6.40;99.90
4183;DHT22;2105;52.300;9.182;2023-04-25T03:32:04;6.40;99.90
4183;DHT22;2105;52.300;9.182;2023-04-25T03:34:31;6.40;99.90
4183;DHT22;2105;52.300;9.182;2023-04-25T03:36:59;6.50;99.90
4183;DHT22;2105;52.300;9.182;2023-04-25T03:39:28;6.50;99.90
4183;DHT22;2105;52.300;9.182;2023-04-25T03:41:55;6.40;99.90
4183;DHT22;2105;52.300;9.182;2023-04-25T03:44:22;6.50;99.90
4183;DHT22;2105;52.300;9.182;2023-04-25T03:46:49;6.50;99.90
4183;DHT22;2105;52.300;9.182;2023-04-25T03:49:18;6.50;99.90
4183;DHT22;2105;52.300;9.182;2023-04-25T03:51:44;6.40;99.90
4183;DHT22;2105;52.300;9.182;2023-04-25T03:54:11;6.40;99.90
4183;DHT22;2105;52.300;9.182;2023-04-25T03:56:38;6.50;99.90
4183;DHT22;2105;52.300;9.182;2023-04-25T03:59:05;6.50;99.90
4183;DHT22;2105;52.300;9.182;2023-04-25T04:01:32;6.50;99.90
4183;DHT22;2105;52.300;9.182;2023-04-25T04:03:58;6.50;99.90
4183;DHT22;2105;52.300;9.182;2023-04-25T04:06:36;6.40;99.90
4183;DHT22;2105;52.300;9.182;2023-04-25T04:09:03;6.40;99.90
4183;DHT22;2105;52.300;9.182;2023-04-25T04:11:31;6.50;99.90
4183;DHT22;2105;52.300;9.182;2023-04-25T04:13:58;6.50;99.90
4183;DHT22;2105;52.300;9.182;2023-04-25T04:16:25;6.50;99.90
4183;DHT22;2105;52.300;9.182;2023-04-25T04:18:52;6.50;99.90
4183;DHT22;2105;52.300;9.182;2023-04-25T04:21:18;6.50;99.90
4183;DHT22;2105;52.300;9.182;2023-04-25T04:23:47;6.50;99.90
4183;DHT22;2105;52.300;9.182;2023-04-25T04:26:13;6.50;99.90
4183;DHT22;2105;52.300;9.182;2023-04-25T04:28:42;6.50;99.90
4183;DHT22;2105;52.300;9.182;2023-04-25T04:31:09;6.50;99.90
4183;DHT22;2105;52.300;9.182;2023-04-25T04:33:36;6.50;99.90
4183;DHT22;2105;52.300;9.182;2023-04-25T04:36:06;6.40;99.90
4183;DHT22;2105;52.300;9.182;2023-04-25T04:38:41;6.40;99.90
4183;DHT22;2105;52.300;9.182;2023-04-25T04:41:09;6.40;99.90
4183;DHT22;2105;52.300;9.182;2023-04-25T04:43:36;6.40;99.90
4183;DHT22;2105;52.300;9.182;2023-04-25T04:46:05;6.40;99.90
4183;DHT22;2105;52.300;9.182;2023-04-25T04:48:32;6.40;99.90
4183;DHT22;2105;52.300;9.182;2023-04-25T04:50:59;6.40;99.90
4183;DHT22;2105;52.300;9.182;2023-04-25T04:53:26;6.40;99.90
4183;DHT22;2105;52.300;9.182;2023-04-25T04:55:53;6.40;99.90
4183;DHT22;2105;52.300;9.182;2023-04-25T04:58:23;6.40;99.90
4183;DHT22;2105;52.300;9.182;2023-04-25T05:00:50;6.40;99.90
4183;DHT22;2105;52.300;9.182;2023-04-25T05:03:16;6.40;99.90
4183;DHT22;2105;52.300;9.182;2023-04-25T05:05:43;6.40;99.90
4183;DHT22;2105;52.300;9.182;2023-04-25T05:08:11;6.40;99.90
4183;DHT22;2105;52.300;9.182;2023-04-25T05:10:38;6.40;99.90
4183;DHT22;2105;52.300;9.182;2023-04-25T05:13:05;6.40;99.90
4183;DHT22;2105;52.300;9.182;2023-04-25T05:15:33;6.30;99.90
4183;DHT22;2105;52.300;9.182;2023-04-25T05:18:01;6.30;99.90
4183;DHT22;2105;52.300;9.182;2023-04-25T05:20:28;6.30;99.90
4183;DHT22;2105;52.300;9.182;2023-04-25T05:22:55;6.30;99.90
4183;DHT22;2105;52.300;9.182;2023-04-25T05:25:23;6.30;99.90
4183;DHT22;2105;52.300;9.182;2023-04-25T05:27:50;6.30;99.90
4183;DHT22;2105;52.300;9.182;2023-04-25T05:30:17;6.30;94.50
4183;DHT22;2105;52.300;9.182;2023-04-25T05:32:46;6.30;72.50
4183;DHT22;2105;52.300;9.182;2023-04-25T05:35:13;6.30;87.80
4183;DHT22;2105;52.300;9.182;2023-04-25T05:37:43;6.30;78.10
4183;DHT22;2105;52.300;9.182;2023-04-25T05:40:14;6.30;99.90
4183;DHT22;2105;52.300;9.182;2023-04-25T05:42:44;6.40;99.90
4183;DHT22;2105;52.300;9.182;2023-04-25T05:45:12;6.40;99.90
4183;DHT22;2105;52.300;9.182;2023-04-25T05:47:39;6.40;99.90
4183;DHT22;2105;52.300;9.182;2023-04-25T05:50:08;6.40;99.90
4183;DHT22;2105;52.300;9.182;2023-04-25T05:52:35;6.50;99.90
4183;DHT22;2105;52.300;9.182;2023-04-25T05:55:02;6.50;99.90
4183;DHT22;2105;52.300;9.182;2023-04-25T05:57:29;6.50;93.90
4183;DHT22;2105;52.300;9.182;2023-04-25T05:59:56;6.50;58.50
4183;DHT22;2105;52.300;9.182;2023-04-25T06:04:52;6.60;99.90
4183;DHT22;2105;52.300;9.182;2023-04-25T06:07:21;6.60;99.90
4183;DHT22;2105;52.300;9.182;2023-04-25T06:09:47;6.70;99.90
4183;DHT22;2105;52.300;9.182;2023-04-25T06:12:14;6.70;99.90
4183;DHT22;2105;52.300;9.182;2023-04-25T06:14:41;6.80;99.90
4183;DHT22;2105;52.300;9.182;2023-04-25T06:17:07;7.00;99.90
4183;DHT22;2105;52.300;9.182;2023-04-25T06:19:35;7.20;99.90
4183;DHT22;2105;52.300;9.182;2023-04-25T06:22:02;7.30;15.90
4183;DHT22;2105;52.300;9.182;2023-04-25T06:24:34;7.30;1.00
4183;DHT22;2105;52.300;9.182;2023-04-25T06:27:00;7.30;1.00
4183;DHT22;2105;52.300;9.182;2023-04-25T06:29:28;7.40;1.00
4183;DHT22;2105;52.300;9.182;2023-04-25T06:31:54;7.50;99.90
4183;DHT22;2105;52.300;9.182;2023-04-25T06:34:21;7.50;1.00
4183;DHT22;2105;52.300;9.182;2023-04-25T06:36:48;7.40;99.90
4183;DHT22;2105;52.300;9.182;2023-04-25T06:39:15;7.30;99.90
4183;DHT22;2105;52.300;9.182;2023-04-25T06:41:43;7.20;4.40
4183;DHT22;2105;52.300;9.182;2023-04-25T06:44:09;7.20;99.90
4183;DHT22;2105;52.300;9.182;2023-04-25T06:46:36;7.10;99.90
4183;DHT22;2105;52.300;9.182;2023-04-25T06:49:03;7.10;32.30
4183;DHT22;2105;52.300;9.182;2023-04-25T06:51:30;7.20;1.00
4183;DHT22;2105;52.300;9.182;2023-04-25T06:53:57;7.60;1.00
4183;DHT22;2105;52.300;9.182;2023-04-25T06:56:23;8.30;99.90
4183;DHT22;2105;52.300;9.182;2023-04-25T06:58:52;8.20;99.90
4183;DHT22;2105;52.300;9.182;2023-04-25T07:01:19;8.00;99.90
4183;DHT22;2105;52.300;9.182;2023-04-25T07:03:46;7.70;1.00
4183;DHT22;2105;52.300;9.182;2023-04-25T07:06:12;7.50;89.20
4183;DHT22;2105;52.300;9.182;2023-04-25T07:08:39;7.50;1.00
4183;DHT22;2105;52.300;9.182;2023-04-25T07:11:05;7.30;1.00
4183;DHT22;2105;52.300;9.182;2023-04-25T07:13:32;7.30;1.00
4183;DHT22;2105;52.300;9.182;2023-04-25T07:16:01;7.30;99.90
4183;DHT22;2105;52.300;9.182;2023-04-25T07:18:28;7.40;99.90
4183;DHT22;2105;52.300;9.182;2023-04-25T07:20:55;7.40;1.00
4183;DHT22;2105;52.300;9.182;2023-04-25T07:23:22;7.40;99.90
4183;DHT22;2105;52.300;9.182;2023-04-25T07:25:52;7.40;1.00
4183;DHT22;2105;52.300;9.182;2023-04-25T07:28:19;7.40;1.00
4183;DHT22;2105;52.300;9.182;2023-04-25T07:30:46;7.50;99.90
4183;DHT22;2105;52.300;9.182;2023-04-25T07:33:14;7.60;87.80
4183;DHT22;2105;52.300;9.182;2023-04-25T07:35:41;7.70;99.90
4183;DHT22;2105;52.300;9.182;2023-04-25T07:38:07;7.80;1.00
4183;DHT22;2105;52.300;9.182;2023-04-25T07:40:35;7.80;1.00
4183;DHT22;2105;52.300;9.182;2023-04-25T07:43:02;7.80;99.90
4183;DHT22;2105;52.300;9.182;2023-04-25T07:45:29;7.90;99.90
4183;DHT22;2105;52.300;9.182;2023-04-25T07:47:55;7.90;9.70
4183;DHT22;2105;52.300;9.182;2023-04-25T07:50:24;8.00;1.00
4183;DHT22;2105;52.300;9.182;2023-04-25T07:52:50;8.20;1.00
4183;DHT22;2105;52.300;9.182;2023-04-25T07:55:17;8.60;1.00
4183;DHT22;2105;52.300;9.182;2023-04-25T07:57:44;8.70;1.00
4183;DHT22;2105;52.300;9.182;2023-04-25T08:00:13;8.70;99.90
4183;DHT22;2105;52.300;9.182;2023-04-25T08:02:40;8.80;99.90
4183;DHT22;2105;52.300;9.182;2023-04-25T08:05:07;8.90;99.90
4183;DHT22;2105;52.300;9.182;2023-04-25T08:07:38;9.20;99.90
4183;DHT22;2105;52.300;9.182;2023-04-25T08:10:07;9.30;99.90
4183;DHT22;2105;52.300;9.182;2023-04-25T08:12:34;9.30;99.90
4183;DHT22;2105;52.300;9.182;2023-04-25T08:15:01;9.00;99.90
4183;DHT22;2105;52.300;9.182;2023-04-25T08:17:28;8.60;99.90
4183;DHT22;2105;52.300;9.182;2023-04-25T08:19:55;8.30;99.90
4183;DHT22;2105;52.300;9.182;2023-04-25T08:22:22;8.10;99.90
4183;DHT22;2105;52.300;9.182;2023-04-25T08:24:50;7.90;1.00
4183;DHT22;2105;52.300;9.182;2023-04-25T08:27:18;7.80;2.80
4183;DHT22;2105;52.300;9.182;2023-04-25T08:29:46;7.80;1.00
4183;DHT22;2105;52.300;9.182;2023-04-25T08:32:12;7.90;1.00
4183;DHT22;2105;52.300;9.182;2023-04-25T08:34:39;8.00;1.00
4183;DHT22;2105;52.300;9.182;2023-04-25T08:37:08;8.00;1.00
4183;DHT22;2105;52.300;9.182;2023-04-25T08:39:36;8.20;1.00
4183;DHT22;2105;52.300;9.182;2023-04-25T08:42:06;8.70;1.00
4183;DHT22;2105;52.300;9.182;2023-04-25T08:44:34;8.80;99.90
4183;DHT22;2105;52.300;9.182;2023-04-25T08:47:02;9.00;99.90
4183;DHT22;2105;52.300;9.182;2023-04-25T08:49:31;9.00;99.90
4183;DHT22;2105;52.300;9.182;2023-04-25T08:51:59;8.80;99.90
4183;DHT22;2105;52.300;9.182;2023-04-25T08:54:27;8.50;99.90
4183;DHT22;2105;52.300;9.182;2023-04-25T08:56:56;8.30;99.90
4183;DHT22;2105;52.300;9.182;2023-04-25T08:59:40;8.10;99.90
4183;DHT22;2105;52.300;9.182;2023-04-25T09:02:11;8.00;99.90
4183;DHT22;2105;52.300;9.182;2023-04-25T09:04:40;8.00;99.90
4183;DHT22;2105;52.300;9.182;2023-04-25T09:07:07;7.90;64.50
4183;DHT22;2105;52.300;9.182;2023-04-25T09:09:34;7.80;1.00
4183;DHT22;2105;52.300;9.182;2023-04-25T09:12:01;7.90;99.90
4183;DHT22;2105;52.300;9.182;2023-04-25T09:14:28;7.90;99.90
4183;DHT22;2105;52.300;9.182;2023-04-25T09:17:02;8.00;99.90
4183;DHT22;2105;52.300;9.182;2023-04-25T09:19:31;8.00;58.80
4183;DHT22;2105;52.300;9.182;2023-04-25T09:22:02;8.00;99.90
4183;DHT22;2105;52.300;9.182;2023-04-25T09:24:33;8.40;1.00
4183;DHT22;2105;52.300;9.182;2023-04-25T09:27:03;9.10;1.00
4183;DHT22;2105;52.300;9.182;2023-04-25T09:29:31;9.70;1.00
4183;DHT22;2105;52.300;9.182;2023-04-25T09:32:15;10.20;1.00
4183;DHT22;2105;52.300;9.182;2023-04-25T09:34:43;10.50;1.00
4183;DHT22;2105;52.300;9.182;2023-04-25T09:37:10;10.60;1.00
4183;DHT22;2105;52.300;9.182;2023-04-25T09:39:37;10.70;1.00
4183;DHT22;2105;52.300;9.182;2023-04-25T09:42:04;10.50;1.00
4183;DHT22;2105;52.300;9.182;2023-04-25T09:44:31;10.30;1.00
4183;DHT22;2105;52.300;9.182;2023-04-25T09:46:58;10.10;1.00
4183;DHT22;2105;52.300;9.182;2023-04-25T09:49:27;9.90;1.00
4183;DHT22;2105;52.300;9.182;2023-04-25T09:51:54;9.60;1.00
4183;DHT22;2105;52.300;9.182;2023-04-25T09:54:23;9.30;1.00
4183;DHT22;2105;52.300;9.182;2023-04-25T09:56:51;9.20;1.00
4183;DHT22;2105;52.300;9.182;2023-04-25T09:59:20;9.30;99.90
4183;DHT22;2105;52.300;9.182;2023-04-25T10:01:48;9.40;98.70
4183;DHT22;2105;52.300;9.182;2023-04-25T10:04:19;9.60;99.90
4183;DHT22;2105;52.300;9.182;2023-04-25T10:06:49;9.70;99.90
4183;DHT22;2105;52.300;9.182;2023-04-25T10:09:19;9.70;99.90
4183;DHT22;2105;52.300;9.182;2023-04-25T10:11:48;9.80;99.90
4183;DHT22;2105;52.300;9.182;2023-04-25T10:14:18;10.10;99.90
4183;DHT22;2105;52.300;9.182;2023-04-25T10:16:47;10.40;99.90
4183;DHT22;2105;52.300;9.182;2023-04-25T10:19:15;10.70;99.90
4183;DHT22;2105;52.300;9.182;2023-04-25T10:21:48;11.00;99.90
4183;DHT22;2105;52.300;9.182;2023-04-25T10:24:16;10.80;1.00
4183;DHT22;2105;52.300;9.182;2023-04-25T10:26:43;10.90;1.00
4183;DHT22;2105;52.300;9.182;2023-04-25T10:29:10;11.20;1.00
4183;DHT22;2105;52.300;9.182;2023-04-25T10:31:45;11.00;1.00
4183;DHT22;2105;52.300;9.182;2023-04-25T10:34:12;10.50;1.00
4183;DHT22;2105;52.300;9.182;2023-04-25T10:36:39;10.40;1.00
4183;DHT22;2105;52.300;9.182;2023-04-25T10:39:07;10.30;1.00
4183;DHT22;2105;52.300;9.182;2023-04-25T10:41:46;10.20;1.00
4183;DHT22;2105;52.300;9.182;2023-04-25T10:44:14;10.30;1.00
4183;DHT22;2105;52.300;9.182;2023-04-25T10:46:41;10.20;1.00
4183;DHT22;2105;52.300;9.182;2023-04-25T10:49:10;10.00;1.00
4183;DHT22;2105;52.300;9.182;2023-04-25T10:51:37;10.20;1.00
4183;DHT22;2105;52.300;9.182;2023-04-25T10:54:05;10.20;1.00
4183;DHT22;2105;52.300;9.182;2023-04-25T10:56:36;10.00;1.00
4183;DHT22;2105;52.300;9.182;2023-04-25T10:59:06;9.60;1.00
4183;DHT22;2105;52.300;9.182;2023-04-25T11:01:38;9.40;1.00
4183;DHT22;2105;52.300;9.182;2023-04-25T11:04:06;9.10;1.00
4183;DHT22;2105;52.300;9.182;2023-04-25T11:06:42;8.80;1.00
4183;DHT22;2105;52.300;9.182;2023-04-25T11:09:13;8.60;1.00
4183;DHT22;2105;52.300;9.182;2023-04-25T11:11:41;8.50;1.00
4183;DHT22;2105;52.300;9.182;2023-04-25T11:14:08;8.50;1.00
4183;DHT22;2105;52.300;9.182;2023-04-25T11:16:35;8.50;1.00
4183;DHT22;2105;52.300;9.182;2023-04-25T11:19:02;8.70;1.00
4183;DHT22;2105;52.300;9.182;2023-04-25T11:21:30;8.80;1.00
4183;DHT22;2105;52.300;9.182;2023-04-25T11:23:58;9.00;1.00
4183;DHT22;2105;52.300;9.182;2023-04-25T11:26:26;9.60;1.00
4183;DHT22;2105;52.300;9.182;2023-04-25T11:28:58;10.30;1.00
4183;DHT22;2105;52.300;9.182;2023-04-25T11:31:25;10.30;1.00
4183;DHT22;2105;52.300;9.182;2023-04-25T11:33:53;10.40;1.00
4183;DHT22;2105;52.300;9.182;2023-04-25T11:36:20;10.80;1.00
4183;DHT22;2105;52.300;9.182;2023-04-25T11:38:46;11.20;1.00
4183;DHT22;2105;52.300;9.182;2023-04-25T11:41:13;11.60;1.00
4183;DHT22;2105;52.300;9.182;2023-04-25T11:43:40;11.90;1.00
4183;DHT22;2105;52.300;9.182;2023-04-25T11:46:10;11.70;40.60
4183;DHT22;2105;52.300;9.182;2023-04-25T11:48:38;11.30;33.80
4183;DHT22;2105;52.300;9.182;2023-04-25T11:51:05;11.70;70.30
4183;DHT22;2105;52.300;9.182;2023-04-25T11:53:41;11.90;1.00
4183;DHT22;2105;52.300;9.182;2023-04-25T11:56:09;12.00;8.40
4183;DHT22;2105;52.300;9.182;2023-04-25T11:58:55;12.30;35.80
4183;DHT22;2105;52.300;9.182;2023-04-25T12:01:28;12.50;1.00
4183;DHT22;2105;52.300;9.182;2023-04-25T12:03:55;12.50;1.00
4183;DHT22;2105;52.300;9.182;2023-04-25T12:06:26;12.30;8.80
4183;DHT22;2105;52.300;9.182;2023-04-25T12:09:04;12.50;27.60
4183;DHT22;2105;52.300;9.182;2023-04-25T12:11:31;12.80;34.30
4183;DHT22;2105;52.300;9.182;2023-04-25T12:14:02;13.00;61.00
4183;DHT22;2105;52.300;9.182;2023-04-25T12:16:40;13.00;1.00
4183;DHT22;2105;52.300;9.182;2023-04-25T12:19:07;13.10;8.10
4183;DHT22;2105;52.300;9.182;2023-04-25T12:21:33;12.70;1.00
4183;DHT22;2105;52.300;9.182;2023-04-25T12:24:09;12.90;1.00
4183;DHT22;2105;52.300;9.182;2023-04-25T12:26:50;12.20;1.00
4183;DHT22;2105;52.300;9.182;2023-04-25T12:29:18;11.60;1.00
4183;DHT22;2105;52.300;9.182;2023-04-25T12:31:46;11.30;1.00
4183;DHT22;2105;52.300;9.182;2023-04-25T12:34:13;11.00;9.00
4183;DHT22;2105;52.300;9.182;2023-04-25T12:36:40;10.70;65.30
4183;DHT22;2105;52.300;9.182;2023-04-25T12:39:07;10.20;99.90
4183;DHT22;2105;52.300;9.182;2023-04-25T12:41:34;9.70;99.90
4183;DHT22;2105;52.300;9.182;2023-04-25T12:44:00;9.50;99.90
4183;DHT22;2105;52.300;9.182;2023-04-25T12:46:27;9.30;1.00
4183;DHT22;2105;52.300;9.182;2023-04-25T12:48:55;9.10;1.00
4183;DHT22;2105;52.300;9.182;2023-04-25T12:51:22;9.10;1.00
4183;DHT22;2105;52.300;9.182;2023-04-25T12:53:50;9.00;1.00
4183;DHT22;2105;52.300;9.182;2023-04-25T12:56:18;9.20;99.90
4183;DHT22;2105;52.300;9.182;2023-04-25T12:58:44;10.00;99.90
4183;DHT22;2105;52.300;9.182;2023-04-25T13:01:12;10.70;17.60
4183;DHT22;2105;52.300;9.182;2023-04-25T13:03:39;10.80;1.00
4183;DHT22;2105;52.300;9.182;2023-04-25T13:06:07;11.30;1.00
4183;DHT22;2105;52.300;9.182;2023-04-25T13:08:34;11.80;1.00
4183;DHT22;2105;52.300;9.182;2023-04-25T13:11:02;12.00;1.00
4183;DHT22;2105;52.300;9.182;2023-04-25T13:13:29;12.30;1.00
4183;DHT22;2105;52.300;9.182;2023-04-25T13:15:56;12.50;1.00
4183;DHT22;2105;52.300;9.182;2023-04-25T13:18:23;12.80;1.00
4183;DHT22;2105;52.300;9.182;2023-04-25T13:20:52;13.10;99.90
4183;DHT22;2105;52.300;9.182;2023-04-25T13:23:21;13.30;99.90
4183;DHT22;2105;52.300;9.182;2023-04-25T13:25:48;13.50;99.90
4183;DHT22;2105;52.300;9.182;2023-04-25T13:28:15;13.40;99.90
4183;DHT22;2105;52.300;9.182;2023-04-25T13:30:43;13.00;99.90
4183;DHT22;2105;52.300;9.182;2023-04-25T13:33:10;12.50;99.90
4183;DHT22;2105;52.300;9.182;2023-04-25T13:35:37;11.90;99.90
4183;DHT22;2105;52.300;9.182;2023-04-25T13:38:04;11.30;99.90
4183;DHT22;2105;52.300;9.182;2023-04-25T13:40:32;10.80;99.90
4183;DHT22;2105;52.300;9.182;2023-04-25T13:42:59;10.60;99.90
4183;DHT22;2105;52.300;9.182;2023-04-25T13:45:26;10.40;99.90
4183;DHT22;2105;52.300;9.182;2023-04-25T13:47:52;10.20;99.90
4183;DHT22;2105;52.300;9.182;2023-04-25T13:50:19;9.90;1.00
4183;DHT22;2105;52.300;9.182;2023-04-25T13:52:46;9.60;1.00
4183;DHT22;2105;52.300;9.182;2023-04-25T13:55:13;9.30;1.00
4183;DHT22;2105;52.300;9.182;2023-04-25T13:57:41;9.00;1.00
4183;DHT22;2105;52.300;9.182;2023-04-25T14:00:10;8.90;1.00
4183;DHT22;2105;52.300;9.182;2023-04-25T14:02:36;8.90;1.00
4183;DHT22;2105;52.300;9.182;2023-04-25T14:05:04;9.00;6.70
4183;DHT22;2105;52.300;9.182;2023-04-25T14:07:34;9.00;1.00
4183;DHT22;2105;52.300;9.182;2023-04-25T14:10:01;9.10;19.30
4183;DHT22;2105;52.300;9.182;2023-04-25T14:12:28;9.50;1.00
4183;DHT22;2105;52.300;9.182;2023-04-25T14:14:56;10.20;1.00
4183;DHT22;2105;52.300;9.182;2023-04-25T14:17:22;10.60;1.00
4183;DHT22;2105;52.300;9.182;2023-04-25T14:19:49;10.50;1.00
4183;DHT22;2105;52.300;9.182;2023-04-25T14:22:16;10.40;1.00
4183;DHT22;2105;52.300;9.182;2023-04-25T14:24:43;10.60;1.00
4183;DHT22;2105;52.300;9.182;2023-04-25T14:27:10;10.70;1.00
4183;DHT22;2105;52.300;9.182;2023-04-25T14:29:37;10.80;1.00
4183;DHT22;2105;52.300;9.182;2023-04-25T14:32:06;10.80;99.90
4183;DHT22;2105;52.300;9.182;2023-04-25T14:34:33;10.70;99.90
4183;DHT22;2105;52.300;9.182;2023-04-25T14:37:00;10.60;99.90
4183;DHT22;2105;52.300;9.182;2023-04-25T14:39:27;10.30;99.90
4183;DHT22;2105;52.300;9.182;2023-04-25T14:41:54;10.20;99.90
4183;DHT22;2105;52.300;9.182;2023-04-25T14:44:21;10.30;99.90
4183;DHT22;2105;52.300;9.182;2023-04-25T14:46:49;10.30;99.90
4183;DHT22;2105;52.300;9.182;2023-04-25T14:49:18;10.20;99.90
4183;DHT22;2105;52.300;9.182;2023-04-25T14:51:45;10.20;99.90
4183;DHT22;2105;52.300;9.182;2023-04-25T14:54:12;10.10;99.90
4183;DHT22;2105;52.300;9.182;2023-04-25T14:56:39;10.00;99.90
4183;DHT22;2105;52.300;9.182;2023-04-25T14:59:07;10.10;99.90
4183;DHT22;2105;52.300;9.182;2023-04-25T15:01:34;10.50;99.90
4183;DHT22;2105;52.300;9.182;2023-04-25T15:04:01;10.80;99.90
4183;DHT22;2105;52.300;9.182;2023-04-25T15:06:30;10.80;99.90
4183;DHT22;2105;52.300;9.182;2023-04-25T15:09:11;10.80;99.90
4183;DHT22;2105;52.300;9.182;2023-04-25T15:11:38;10.50;99.90
4183;DHT22;2105;52.300;9.182;2023-04-25T15:14:05;10.20;99.90
4183;DHT22;2105;52.300;9.182;2023-04-25T15:16:32;9.90;99.90
4183;DHT22;2105;52.300;9.182;2023-04-25T15:18:59;9.70;99.90
4183;DHT22;2105;52.300;9.182;2023-04-25T15:21:30;9.60;99.90
4183;DHT22;2105;52.300;9.182;2023-04-25T15:23:57;9.40;99.90
4183;DHT22;2105;52.300;9.182;2023-04-25T15:26:25;9.10;1.00
4183;DHT22;2105;52.300;9.182;2023-04-25T15:28:52;8.80;1.00
4183;DHT22;2105;52.300;9.182;2023-04-25T15:31:21;8.50;1.00
4183;DHT22;2105;52.300;9.182;2023-04-25T15:33:48;8.40;1.00
4183;DHT22;2105;52.300;9.182;2023-04-25T15:36:15;8.30;1.00
4183;DHT22;2105;52.300;9.182;2023-04-25T15:38:45;8.30;29.20
4183;DHT22;2105;52.300;9.182;2023-04-25T15:41:12;8.30;1.00
4183;DHT22;2105;52.300;9.182;2023-04-25T15:43:39;8.30;99.90
4183;DHT22;2105;52.300;9.182;2023-04-25T15:46:05;8.40;99.90
4183;DHT22;2105;52.300;9.182;2023-04-25T15:48:34;8.50;99.90
4183;DHT22;2105;52.300;9.182;2023-04-25T15:51:01;8.60;99.90
4183;DHT22;2105;52.300;9.182;2023-04-25T15:53:27;8.70;99.90
4183;DHT22;2105;52.300;9.182;2023-04-25T15:55:57;8.90;99.90
4183;DHT22;2105;52.300;9.182;2023-04-25T15:58:24;8.90;99.90
4183;DHT22;2105;52.300;9.182;2023-04-25T16:00:52;9.10;99.90
4183;DHT22;2105;52.300;9.182;2023-04-25T16:03:21;9.30;99.90
4183;DHT22;2105;52.300;9.182;2023-04-25T16:05:48;9.40;99.90
4183;DHT22;2105;52.300;9.182;2023-04-25T16:08:17;9.50;99.90
4183;DHT22;2105;52.300;9.182;2023-04-25T16:10:44;9.80;17.30
4183;DHT22;2105;52.300;9.182;2023-04-25T16:13:14;9.60;1.00
4183;DHT22;2105;52.300;9.182;2023-04-25T16:15:41;9.40;1.00
4183;DHT22;2105;52.300;9.182;2023-04-25T16:18:07;9.40;1.00
4183;DHT22;2105;52.300;9.182;2023-04-25T16:20:36;9.20;1.00
4183;DHT22;2105;52.300;9.182;2023-04-25T16:23:03;9.10;1.00
4183;DHT22;2105;52.300;9.182;2023-04-25T16:25:30;8.90;9.60
4183;DHT22;2105;52.300;9.182;2023-04-25T16:27:56;8.70;3.40
4183;DHT22;2105;52.300;9.182;2023-04-25T16:30:25;8.20;1.00
4183;DHT22;2105;52.300;9.182;2023-04-25T16:32:52;7.80;99.90
4183;DHT22;2105;52.300;9.182;2023-04-25T16:35:21;7.60;99.90
4183;DHT22;2105;52.300;9.182;2023-04-25T16:37:48;7.30;1.00
4183;DHT22;2105;52.300;9.182;2023-04-25T16:40:16;7.10;16.00
4183;DHT22;2105;52.300;9.182;2023-04-25T16:42:43;7.00;99.90
4183;DHT22;2105;52.300;9.182;2023-04-25T16:45:12;6.90;99.90
4183;DHT22;2105;52.300;9.182;2023-04-25T16:47:58;6.90;1.00
4183;DHT22;2105;52.300;9.182;2023-04-25T16:50:26;6.90;1.00